Pagina principale
METAR-TAF:

METAR-TAF

Aeroporti :

Gilze-Rijen, Paesi Bassi

latitudine: 51-34N, longitudine: 004-56E, altezza: 15 m

Osservazione

Il bollettino è stato emesso 15 minuti fa, alle 21:55 UTC
Vento 6 kt da ovest, variando fra ovest/sud-ovest e nord-ovest
Temperature 5°C
Umidità 70%
Pressione 1023 hPa
Visibilità 10 km o più
Cielo coperto ad un'altezza di 16000 ft

METAR: EHGR 232155Z AUTO 28006KT 240V320 9999 OVC160 05/00 Q1023 BLU

Ora: 23:10 (22:10 UTC)


TAF: mancante

Osservazioni e previsioni meteorologiche di più di 4000 aeroporti (messaggi METAR e TAF).

Le stazioni disponibili sono rappresentate dai dischi gialli e rossi sulla carta.

Puntare il mouse per vedere il nome della stazione.

Clicca sopra per visualizzare le osservazioni e previsioni meteorologiche.

Per cambiare la mappa : fare clic sui pulsanti verdi con una croce nera per ingrandire, il pulsante verde con un trattino per diminuire, o sulla freccia verde per le mappe adiacenti.


METAR-TAF: